createdAt,value
2023-05-20T00:01:38.828Z,97.10
2023-05-20T00:04:10.765Z,97.57
2023-05-20T00:06:42.677Z,98.08
2023-05-20T00:09:14.357Z,98.53
2023-05-20T00:11:46.586Z,99.21
2023-05-20T00:14:18.451Z,99.48
2023-05-20T00:16:50.162Z,99.94
2023-05-20T00:19:22.309Z,99.72
2023-05-20T00:21:54.152Z,99.38
2023-05-20T00:24:26.431Z,99.12
2023-05-20T00:26:58.080Z,98.74
2023-05-20T00:29:30.769Z,98.39
2023-05-20T00:32:02.475Z,98.18
2023-05-20T00:34:34.242Z,97.73
2023-05-20T00:37:06.168Z,97.72
2023-05-20T00:39:38.122Z,97.10
2023-05-20T00:42:09.980Z,97.33
2023-05-20T00:44:42.183Z,97.37
2023-05-20T00:47:14.110Z,97.50
2023-05-20T00:49:48.171Z,97.55
2023-05-20T00:52:23.666Z,96.96
2023-05-20T00:54:55.573Z,97.04
2023-05-20T00:57:27.518Z,96.55
2023-05-20T00:59:59.631Z,96.42
2023-05-20T01:02:31.713Z,96.38
2023-05-20T01:05:03.825Z,96.26
2023-05-20T01:07:35.773Z,96.04
2023-05-20T01:10:09.447Z,95.97
2023-05-20T01:12:44.911Z,95.36
2023-05-20T01:15:18.813Z,95.52
2023-05-20T01:17:57.967Z,95.45
2023-05-20T01:20:33.136Z,95.26
2023-05-20T01:23:05.224Z,95.20
2023-05-20T01:25:37.259Z,95.22
2023-05-20T01:28:09.481Z,95.41
2023-05-20T01:30:46.438Z,95.00
2023-05-20T01:33:21.841Z,94.65
2023-05-20T01:35:54.175Z,94.33
2023-05-20T01:38:27.122Z,94.10
2023-05-20T01:41:00.616Z,94.14
2023-05-20T01:43:32.765Z,94.24
2023-05-20T01:46:06.527Z,94.07
2023-05-20T01:48:38.502Z,93.75
2023-05-20T01:51:10.392Z,92.89
2023-05-20T01:53:42.073Z,93.29
2023-05-20T01:56:14.345Z,93.36
2023-05-20T01:58:46.428Z,92.63
2023-05-20T02:01:18.212Z,92.27
2023-05-20T02:03:49.904Z,92.46
2023-05-20T02:06:22.023Z,92.64
2023-05-20T02:08:53.649Z,92.65
2023-05-20T02:11:29.067Z,92.59
2023-05-20T02:14:01.934Z,92.24
2023-05-20T02:16:33.862Z,91.58
2023-05-20T02:19:05.673Z,91.80
2023-05-20T02:21:37.268Z,91.28
2023-05-20T02:24:09.383Z,91.66
2023-05-20T02:26:41.209Z,91.20
2023-05-20T02:29:13.348Z,90.98
2023-05-20T02:31:44.935Z,91.43
2023-05-20T02:34:16.643Z,90.95
2023-05-20T02:36:48.471Z,91.04
2023-05-20T02:39:20.160Z,91.00
2023-05-20T02:41:51.811Z,91.53
2023-05-20T02:44:23.485Z,91.19
2023-05-20T02:46:55.412Z,91.32
2023-05-20T02:49:27.112Z,91.28
2023-05-20T02:52:00.141Z,91.43
2023-05-20T02:54:31.746Z,91.57
2023-05-20T02:57:03.772Z,91.34
2023-05-20T02:59:35.527Z,91.66
2023-05-20T03:02:07.540Z,91.05
2023-05-20T03:04:41.114Z,91.34
2023-05-20T03:07:13.256Z,91.49
2023-05-20T03:09:44.927Z,91.07
2023-05-20T03:12:16.666Z,91.02
2023-05-20T03:14:48.384Z,90.61
2023-05-20T03:17:20.124Z,91.14
2023-05-20T03:19:51.875Z,91.22
2023-05-20T03:22:23.562Z,91.00
2023-05-20T03:24:55.803Z,91.08
2023-05-20T03:27:28.071Z,91.25
2023-05-20T03:29:59.674Z,91.24
2023-05-20T03:32:31.432Z,91.11
2023-05-20T03:35:03.213Z,91.21
2023-05-20T03:37:35.301Z,91.17
2023-05-20T03:40:10.390Z,91.13
2023-05-20T03:42:42.311Z,91.49
2023-05-20T03:45:14.333Z,91.39
2023-05-20T03:48:03.419Z,91.67
2023-05-20T03:50:36.846Z,91.19
2023-05-20T03:53:09.058Z,91.62
2023-05-20T03:55:44.024Z,91.32
2023-05-20T03:58:16.808Z,91.30
2023-05-20T04:00:48.874Z,91.12
2023-05-20T04:03:20.705Z,90.96
2023-05-20T04:05:53.304Z,91.11
2023-05-20T04:08:26.406Z,91.36
2023-05-20T04:10:59.847Z,91.56
2023-05-20T04:13:31.813Z,91.87
2023-05-20T04:16:05.301Z,91.20
2023-05-20T04:18:39.068Z,90.89
2023-05-20T04:21:11.246Z,90.57
2023-05-20T04:23:43.024Z,90.73
2023-05-20T04:26:14.604Z,90.74
2023-05-20T04:28:48.696Z,90.97
2023-05-20T04:31:20.854Z,90.93
2023-05-20T04:33:52.567Z,90.77
2023-05-20T04:36:28.611Z,90.88
2023-05-20T04:39:00.535Z,90.88
2023-05-20T04:41:32.293Z,90.75
2023-05-20T04:44:04.090Z,90.56
2023-05-20T04:46:35.987Z,90.62
2023-05-20T04:49:08.402Z,90.46
2023-05-20T04:51:41.890Z,90.43
2023-05-20T04:54:13.842Z,90.52
2023-05-20T04:56:45.475Z,90.42
2023-05-20T04:59:17.110Z,90.57
2023-05-20T05:01:48.849Z,90.41
2023-05-20T05:04:20.994Z,90.73
2023-05-20T05:06:52.720Z,90.24
2023-05-20T05:09:24.470Z,89.96
2023-05-20T05:11:57.778Z,89.94
2023-05-20T05:14:29.523Z,89.88
2023-05-20T05:17:01.149Z,89.74
2023-05-20T05:19:34.885Z,90.04
2023-05-20T05:22:07.552Z,89.99
2023-05-20T05:24:39.670Z,89.49
2023-05-20T05:27:11.406Z,89.78
2023-05-20T05:29:43.143Z,89.79
2023-05-20T05:32:14.865Z,89.85
2023-05-20T05:34:46.716Z,89.85
2023-05-20T05:37:18.536Z,89.65
2023-05-20T05:39:50.651Z,89.71
2023-05-20T05:42:22.593Z,89.58
2023-05-20T05:44:54.908Z,89.09
2023-05-20T05:47:32.431Z,89.19
2023-05-20T05:50:04.781Z,89.33
2023-05-20T05:52:37.671Z,89.23
2023-05-20T05:55:11.969Z,89.30
2023-05-20T05:57:44.009Z,89.17
2023-05-20T06:00:18.907Z,89.31
2023-05-20T06:02:50.871Z,89.83
2023-05-20T06:05:45.856Z,89.20
2023-05-20T06:08:17.702Z,89.24
2023-05-20T06:10:51.352Z,89.49
2023-05-20T06:13:23.165Z,89.31
2023-05-20T06:15:55.003Z,88.99
2023-05-20T06:18:30.223Z,88.59
2023-05-20T06:21:06.060Z,88.04
2023-05-20T06:23:38.351Z,87.59
2023-05-20T06:26:13.526Z,87.67
2023-05-20T06:28:45.410Z,87.50
2023-05-20T06:31:17.361Z,87.35
2023-05-20T06:33:49.168Z,87.64
2023-05-20T06:36:21.025Z,87.40
2023-05-20T06:38:52.929Z,87.16
2023-05-20T06:41:24.658Z,86.85
2023-05-20T06:43:56.374Z,86.64
2023-05-20T06:46:56.676Z,86.42
2023-05-20T06:49:28.506Z,86.21
2023-05-20T06:52:00.266Z,85.79
2023-05-20T06:54:34.122Z,85.95
2023-05-20T06:57:06.512Z,85.86
2023-05-20T06:59:38.434Z,85.69
2023-05-20T07:02:11.786Z,85.71
2023-05-20T07:04:43.589Z,85.28
2023-05-20T07:07:17.265Z,85.28
2023-05-20T07:09:50.062Z,85.20
2023-05-20T07:12:21.755Z,84.68
2023-05-20T07:14:53.857Z,84.74
2023-05-20T07:17:26.771Z,84.88
2023-05-20T07:19:58.738Z,84.61
2023-05-20T07:22:31.250Z,84.54
2023-05-20T07:25:14.214Z,83.74
2023-05-20T07:27:46.207Z,83.79
2023-05-20T07:30:17.898Z,83.72
2023-05-20T07:32:58.041Z,83.33
2023-05-20T07:35:29.974Z,83.04
2023-05-20T07:38:01.767Z,83.01
2023-05-20T07:40:34.150Z,82.93
2023-05-20T07:43:06.004Z,83.01
2023-05-20T07:45:38.480Z,82.80
2023-05-20T07:48:12.994Z,82.56
2023-05-20T07:50:45.663Z,81.72
2023-05-20T07:53:17.959Z,81.04
2023-05-20T07:55:50.190Z,80.82
2023-05-20T07:58:22.822Z,80.85
2023-05-20T08:00:55.253Z,80.39
2023-05-20T08:03:27.263Z,80.00
2023-05-20T08:06:27.310Z,80.59
2023-05-20T08:09:01.328Z,80.02
2023-05-20T08:11:36.837Z,79.45
2023-05-20T08:14:09.118Z,78.66
2023-05-20T08:16:44.898Z,78.14
2023-05-20T08:19:16.881Z,78.58
2023-05-20T08:21:52.445Z,78.56
2023-05-20T08:24:24.940Z,80.21
2023-05-20T08:26:56.725Z,77.42
2023-05-20T08:29:29.521Z,75.66
2023-05-20T08:32:03.191Z,75.65
2023-05-20T08:34:35.114Z,75.95
2023-05-20T08:37:07.103Z,75.90
2023-05-20T08:39:39.104Z,75.75
2023-05-20T08:42:13.338Z,75.86
2023-05-20T08:44:45.672Z,75.60
2023-05-20T08:47:17.603Z,75.61
2023-05-20T08:49:49.840Z,75.85
2023-05-20T08:52:24.401Z,75.72
2023-05-20T08:54:58.128Z,74.87
2023-05-20T08:57:30.626Z,74.49
2023-05-20T09:00:08.370Z,75.14
2023-05-20T09:02:40.960Z,74.40
2023-05-20T09:05:14.723Z,73.71
2023-05-20T09:07:46.671Z,73.93
2023-05-20T09:10:18.400Z,73.64
2023-05-20T09:12:50.140Z,74.10
2023-05-20T09:15:22.088Z,74.10
2023-05-20T09:17:53.796Z,74.54
2023-05-20T09:20:26.417Z,73.83
2023-05-20T09:23:02.231Z,73.22
2023-05-20T09:25:34.695Z,73.15
2023-05-20T09:28:09.125Z,73.17
2023-05-20T09:30:41.004Z,73.28
2023-05-20T09:33:14.237Z,73.26
2023-05-20T09:35:46.546Z,72.82
2023-05-20T09:38:19.648Z,73.18
2023-05-20T09:40:52.236Z,72.85
2023-05-20T09:43:24.485Z,72.93
2023-05-20T09:45:56.917Z,72.40
2023-05-20T09:48:27.352Z,72.91
2023-05-20T09:50:59.849Z,73.34
2023-05-20T09:53:31.965Z,73.32
2023-05-20T09:56:04.120Z,73.53
2023-05-20T09:58:37.117Z,74.18
2023-05-20T10:01:10.284Z,73.98
2023-05-20T10:03:44.248Z,73.89
2023-05-20T10:06:42.067Z,74.13
2023-05-20T10:09:33.230Z,74.16
2023-05-20T10:12:12.798Z,74.69
2023-05-20T10:14:56.684Z,74.18
2023-05-20T10:17:42.810Z,73.85
2023-05-20T10:20:14.852Z,73.55
2023-05-20T10:22:55.908Z,73.81
2023-05-20T10:25:29.453Z,73.70
2023-05-20T10:28:11.883Z,73.35
2023-05-20T10:30:52.186Z,72.85
2023-05-20T10:33:23.850Z,73.06
2023-05-20T10:35:58.953Z,73.26
2023-05-20T10:38:30.897Z,72.35
2023-05-20T10:41:12.188Z,72.07
2023-05-20T10:43:44.834Z,72.02
2023-05-20T10:46:32.560Z,71.81
2023-05-20T10:49:18.212Z,71.80
2023-05-20T10:51:50.250Z,72.03
2023-05-20T10:54:23.008Z,71.47
2023-05-20T10:56:55.936Z,71.11
2023-05-20T10:59:28.087Z,71.38
2023-05-20T11:02:00.529Z,71.72
2023-05-20T11:04:33.652Z,71.41
2023-05-20T11:07:05.747Z,71.18
2023-05-20T11:09:37.717Z,71.54
2023-05-20T11:12:09.857Z,70.57
2023-05-20T11:14:41.599Z,70.01
2023-05-20T11:17:13.712Z,70.00
2023-05-20T11:19:45.618Z,70.09
2023-05-20T11:22:17.382Z,70.28
2023-05-20T11:24:49.210Z,69.83
2023-05-20T11:27:21.541Z,69.79
2023-05-20T11:29:53.678Z,69.48
2023-05-20T11:32:26.948Z,69.00
2023-05-20T11:34:58.755Z,69.04
2023-05-20T11:37:31.703Z,69.12
2023-05-20T11:40:08.958Z,69.06
2023-05-20T11:42:44.962Z,68.31
2023-05-20T11:45:17.532Z,67.62
2023-05-20T11:47:59.386Z,67.03
2023-05-20T11:50:35.750Z,66.63
2023-05-20T11:53:08.993Z,66.83
2023-05-20T11:55:49.701Z,66.57
2023-05-20T11:58:24.137Z,66.91
2023-05-20T12:01:02.244Z,66.22
2023-05-20T12:03:38.911Z,65.76
2023-05-20T12:06:12.635Z,65.75
2023-05-20T12:08:44.779Z,65.40
2023-05-20T12:11:16.978Z,65.80
2023-05-20T12:13:48.732Z,65.32
2023-05-20T12:16:20.414Z,65.49
2023-05-20T12:18:52.507Z,66.42
2023-05-20T12:21:24.379Z,65.85
2023-05-20T12:23:58.010Z,65.28
2023-05-20T12:26:31.598Z,65.79
2023-05-20T12:29:03.922Z,65.57
2023-05-20T12:31:36.015Z,64.36
2023-05-20T12:34:07.705Z,64.50
2023-05-20T12:36:39.496Z,64.01
2023-05-20T12:39:12.552Z,63.80
2023-05-20T12:41:42.696Z,63.78
2023-05-20T12:44:14.462Z,64.33
2023-05-20T12:46:46.282Z,64.07
2023-05-20T12:49:18.003Z,63.69
2023-05-20T12:51:49.730Z,63.48
2023-05-20T12:54:23.028Z,63.69
2023-05-20T12:56:54.869Z,63.78
2023-05-20T12:59:26.518Z,63.28
2023-05-20T13:01:58.301Z,62.81
2023-05-20T13:04:29.989Z,63.14
2023-05-20T13:07:02.090Z,62.49
2023-05-20T13:09:34.546Z,63.28
2023-05-20T13:12:07.010Z,63.26
2023-05-20T13:14:38.732Z,62.35
2023-05-20T13:17:10.502Z,62.47
2023-05-20T13:19:42.710Z,61.48
2023-05-20T13:22:14.488Z,61.77
2023-05-20T13:24:48.588Z,62.24
2023-05-20T13:27:20.387Z,61.39
2023-05-20T13:29:52.200Z,62.01
2023-05-20T13:32:23.999Z,61.92
2023-05-20T13:34:56.935Z,61.58
2023-05-20T13:37:29.116Z,60.74
2023-05-20T13:40:01.226Z,60.92
2023-05-20T13:42:33.245Z,61.26
2023-05-20T13:45:06.126Z,61.36
2023-05-20T13:47:37.951Z,61.26
2023-05-20T13:50:12.296Z,60.99
2023-05-20T13:52:44.091Z,59.96
2023-05-20T13:55:16.319Z,59.60
2023-05-20T13:57:48.171Z,59.93
2023-05-20T14:00:20.607Z,59.52
2023-05-20T14:02:52.302Z,59.60
2023-05-20T14:05:24.138Z,59.26
2023-05-20T14:07:55.855Z,58.65
2023-05-20T14:10:28.505Z,58.75
2023-05-20T14:13:02.181Z,59.17
2023-05-20T14:15:34.296Z,58.25
2023-05-20T14:18:06.271Z,57.66
2023-05-20T14:20:38.104Z,57.53
2023-05-20T14:23:09.952Z,57.35
2023-05-20T14:25:41.895Z,57.13
2023-05-20T14:28:13.666Z,56.65
2023-05-20T14:30:45.398Z,55.70
2023-05-20T14:33:17.427Z,55.13
2023-05-20T14:35:49.387Z,55.06
2023-05-20T14:38:21.818Z,54.22
2023-05-20T14:40:52.060Z,53.84
2023-05-20T14:43:23.831Z,53.60
2023-05-20T14:45:56.087Z,53.46
2023-05-20T14:48:27.845Z,53.63
2023-05-20T14:50:59.690Z,53.00
2023-05-20T14:53:31.382Z,52.72
2023-05-20T14:56:03.209Z,52.23
2023-05-20T14:58:34.895Z,52.02
2023-05-20T15:01:06.606Z,51.97
2023-05-20T15:03:39.941Z,52.11
2023-05-20T15:06:11.833Z,52.20
2023-05-20T15:08:43.517Z,51.70
2023-05-20T15:11:15.154Z,52.11
2023-05-20T15:13:48.186Z,51.93
2023-05-20T15:16:20.070Z,52.07
2023-05-20T15:18:51.878Z,52.71
2023-05-20T15:21:23.633Z,53.17
2023-05-20T15:23:55.449Z,53.01
2023-05-20T15:26:27.713Z,52.62
2023-05-20T15:28:59.384Z,52.21
2023-05-20T15:31:31.551Z,51.71
2023-05-20T15:34:03.400Z,51.02
2023-05-20T15:36:35.498Z,51.30
2023-05-20T15:39:07.295Z,51.26
2023-05-20T15:41:40.634Z,51.08
2023-05-20T15:44:12.851Z,51.33
2023-05-20T15:46:46.497Z,51.79
2023-05-20T15:49:18.729Z,52.07
2023-05-20T15:52:02.433Z,52.34
2023-05-20T15:54:36.034Z,52.35
2023-05-20T15:57:08.123Z,52.11
2023-05-20T15:59:40.174Z,52.14
2023-05-20T16:02:11.921Z,51.90
2023-05-20T16:04:43.790Z,51.79
2023-05-20T16:07:15.815Z,51.75
2023-05-20T16:09:47.534Z,51.98
2023-05-20T16:12:19.602Z,51.84
2023-05-20T16:14:51.292Z,51.94
2023-05-20T16:17:23.048Z,51.89
2023-05-20T16:19:55.109Z,50.48
2023-05-20T16:22:27.447Z,50.10
2023-05-20T16:24:57.571Z,49.23
2023-05-20T16:27:29.515Z,49.57
2023-05-20T16:30:01.312Z,49.33
2023-05-20T16:32:33.106Z,49.57
2023-05-20T16:35:05.521Z,49.01
2023-05-20T16:37:35.736Z,48.45
2023-05-20T16:40:09.757Z,48.09
2023-05-20T16:42:43.607Z,47.78
2023-05-20T16:45:15.707Z,47.75
2023-05-20T16:47:47.458Z,47.45
2023-05-20T16:50:19.163Z,47.20
2023-05-20T16:52:51.135Z,47.53
2023-05-20T16:55:22.869Z,48.30
2023-05-20T16:57:54.594Z,49.77
2023-05-20T17:00:27.737Z,50.72
2023-05-20T17:02:59.525Z,51.74
2023-05-20T17:05:31.413Z,52.82
2023-05-20T17:08:03.360Z,53.30
2023-05-20T17:10:35.649Z,53.81
2023-05-20T17:13:06.228Z,54.79
2023-05-20T17:15:38.188Z,55.55
2023-05-20T17:18:10.384Z,56.28
2023-05-20T17:20:42.153Z,56.56
2023-05-20T17:23:14.733Z,57.04
2023-05-20T17:25:46.577Z,57.65
2023-05-20T17:28:18.331Z,57.86
2023-05-20T17:30:50.070Z,57.99
2023-05-20T17:33:22.441Z,58.22
2023-05-20T17:35:54.221Z,58.49
2023-05-20T17:38:26.811Z,59.32
2023-05-20T17:40:58.979Z,59.38
2023-05-20T17:43:31.005Z,59.91
2023-05-20T17:46:02.737Z,60.17
2023-05-20T17:48:34.469Z,60.71
2023-05-20T17:51:06.745Z,61.11
2023-05-20T17:53:38.699Z,61.43
2023-05-20T17:56:10.549Z,61.76
2023-05-20T17:58:44.628Z,62.02
2023-05-20T18:01:17.929Z,62.65
2023-05-20T18:03:49.706Z,63.07
2023-05-20T18:06:21.576Z,62.89
2023-05-20T18:08:53.365Z,63.18
2023-05-20T18:11:27.239Z,63.49
2023-05-20T18:13:59.751Z,63.73
2023-05-20T18:16:32.139Z,64.30
2023-05-20T18:19:04.136Z,64.37
2023-05-20T18:21:37.505Z,64.72
2023-05-20T18:24:11.433Z,65.25
2023-05-20T18:26:43.176Z,65.78
2023-05-20T18:29:14.927Z,66.13
2023-05-20T18:31:46.787Z,66.82
2023-05-20T18:34:18.534Z,67.42
2023-05-20T18:36:50.475Z,68.05
2023-05-20T18:39:22.282Z,68.40
2023-05-20T18:41:54.164Z,68.82
2023-05-20T18:44:26.174Z,69.27
2023-05-20T18:46:58.896Z,69.85
2023-05-20T18:49:30.639Z,70.19
2023-05-20T18:52:02.578Z,70.69
2023-05-20T18:54:34.298Z,70.91
2023-05-20T18:57:08.073Z,71.34
2023-05-20T18:59:39.980Z,71.50
2023-05-20T19:02:11.859Z,71.78
2023-05-20T19:04:43.701Z,72.00
2023-05-20T19:07:15.387Z,72.50
2023-05-20T19:09:47.802Z,72.76
2023-05-20T19:12:19.857Z,73.09
2023-05-20T19:14:51.533Z,73.45
2023-05-20T19:17:24.218Z,73.61
2023-05-20T19:19:56.242Z,74.32
2023-05-20T19:22:27.973Z,74.55
2023-05-20T19:24:59.960Z,74.85
2023-05-20T19:27:31.646Z,75.07
2023-05-20T19:30:03.496Z,75.49
2023-05-20T19:32:36.174Z,75.68
2023-05-20T19:35:09.757Z,75.86
2023-05-20T19:37:42.887Z,75.91
2023-05-20T19:40:16.250Z,76.32
2023-05-20T19:42:48.180Z,76.67
2023-05-20T19:45:21.817Z,77.10
2023-05-20T19:47:56.208Z,77.03
2023-05-20T19:50:28.049Z,77.41
2023-05-20T19:52:59.891Z,77.46
2023-05-20T19:55:31.792Z,77.85
2023-05-20T19:58:03.477Z,77.79
2023-05-20T20:00:35.491Z,78.33
2023-05-20T20:03:08.054Z,78.69
2023-05-20T20:05:40.373Z,78.68
2023-05-20T20:08:12.376Z,78.86
2023-05-20T20:10:44.482Z,79.36
2023-05-20T20:13:16.406Z,79.58
2023-05-20T20:15:48.673Z,79.62
2023-05-20T20:18:20.423Z,79.89
2023-05-20T20:20:54.079Z,79.67
2023-05-20T20:23:25.882Z,79.96
2023-05-20T20:25:57.571Z,80.15
2023-05-20T20:28:30.113Z,80.30
2023-05-20T20:31:01.813Z,80.22
2023-05-20T20:33:33.981Z,80.38
2023-05-20T20:36:08.809Z,80.84
2023-05-20T20:38:46.958Z,80.88
2023-05-20T20:41:19.164Z,81.26
2023-05-20T20:43:50.883Z,81.42
2023-05-20T20:46:23.250Z,81.52
2023-05-20T20:48:55.129Z,81.62
2023-05-20T20:51:27.227Z,81.58
2023-05-20T20:53:57.931Z,81.83
2023-05-20T20:56:31.703Z,82.11
2023-05-20T20:59:03.520Z,81.95
2023-05-20T21:01:37.628Z,82.48
2023-05-20T21:04:13.363Z,82.52
2023-05-20T21:06:46.257Z,82.64
2023-05-20T21:09:18.126Z,83.03
2023-05-20T21:11:50.066Z,82.91
2023-05-20T21:14:21.890Z,83.32
2023-05-20T21:16:54.109Z,83.34
2023-05-20T21:19:26.621Z,83.26
2023-05-20T21:21:57.396Z,83.40
2023-05-20T21:24:29.272Z,83.59
2023-05-20T21:27:00.946Z,83.45
2023-05-20T21:29:33.858Z,83.77
2023-05-20T21:32:06.063Z,84.12
2023-05-20T21:34:37.868Z,84.23
2023-05-20T21:37:09.635Z,84.43
2023-05-20T21:39:41.830Z,84.65
2023-05-20T21:42:13.514Z,84.43
2023-05-20T21:44:45.357Z,85.12
2023-05-20T21:47:17.238Z,85.04
2023-05-20T21:49:49.149Z,85.22
2023-05-20T21:52:20.895Z,85.18
2023-05-20T21:54:52.611Z,85.67
2023-05-20T21:57:24.298Z,85.67
2023-05-20T21:59:56.271Z,85.32
2023-05-20T22:02:28.112Z,85.62
2023-05-20T22:05:01.159Z,85.73
2023-05-20T22:07:31.794Z,85.71
2023-05-20T22:10:03.790Z,85.76
2023-05-20T22:12:37.928Z,85.95
2023-05-20T22:15:10.947Z,85.98
2023-05-20T22:17:43.536Z,85.80
2023-05-20T22:20:14.998Z,86.13
2023-05-20T22:22:46.702Z,86.15
2023-05-20T22:25:18.516Z,86.14
2023-05-20T22:27:50.640Z,86.50
2023-05-20T22:30:22.283Z,86.47
2023-05-20T22:32:53.972Z,86.77
2023-05-20T22:35:25.805Z,86.91
2023-05-20T22:37:57.507Z,86.95
2023-05-20T22:40:29.496Z,87.28
2023-05-20T22:43:01.288Z,87.28
2023-05-20T22:45:32.991Z,87.37
2023-05-20T22:48:04.989Z,87.52
2023-05-20T22:50:36.751Z,87.63
2023-05-20T22:53:08.429Z,87.76
2023-05-20T22:55:40.955Z,87.68
2023-05-20T22:58:13.305Z,87.79
2023-05-20T23:00:45.773Z,87.99
2023-05-20T23:03:17.651Z,88.14
2023-05-20T23:05:49.902Z,87.81
2023-05-20T23:08:21.829Z,87.95
2023-05-20T23:10:53.508Z,88.45
2023-05-20T23:13:25.244Z,88.25
2023-05-20T23:15:57.791Z,88.74
2023-05-20T23:18:28.064Z,88.98
2023-05-20T23:20:59.702Z,89.23
2023-05-20T23:23:32.358Z,89.25
2023-05-20T23:26:05.089Z,89.23
2023-05-20T23:28:36.863Z,89.37
2023-05-20T23:31:09.442Z,89.51
2023-05-20T23:33:41.444Z,89.73
2023-05-20T23:36:13.216Z,90.54
2023-05-20T23:38:45.719Z,90.21
2023-05-20T23:41:17.480Z,90.60
2023-05-20T23:43:49.175Z,90.81
2023-05-20T23:46:20.949Z,90.95
2023-05-20T23:48:53.785Z,91.19
2023-05-20T23:51:24.107Z,91.30
2023-05-20T23:53:56.089Z,91.36
2023-05-20T23:56:27.875Z,91.04
2023-05-20T23:58:59.619Z,91.09
